Lambert Lake, Maine
Current Conditions -  °F | °C
As of 2:53 AM on Thursday 29 Jan 2015 (Local Time) from KHUL Reporting Station
Clear Clear  
Wind Chill: -6°   Ceiling: Unl
Heat Index: -6°   Visibility: 10mi
Dew Point: -10°   Wind: 0mph
Humidity: 83%   Direction: NA
Pressure: 30.16"   Gusts: NA
Location:  45.55°N, 67.53°W
Report Text: KHUL 290753Z AUTO 00000KT 10SM CLR M21/M23 A3016 RMK AO2 SLP226 T12111233
Loading
Personal Weather Stations






























Interactive Weather Map New forecast layout! Learn more

10-Day Weather Forecast

Advertisements
Track Severe Weather on mobile